createdAt,value
2023-04-26T00:00:11.852Z,100.00
2023-04-26T00:02:59.650Z,100.00
2023-04-26T00:05:34.950Z,100.00
2023-04-26T00:08:21.553Z,100.00
2023-04-26T00:10:54.621Z,100.00
2023-04-26T00:13:41.536Z,100.00
2023-04-26T00:16:15.002Z,100.00
2023-04-26T00:19:01.546Z,100.00
2023-04-26T00:21:41.527Z,100.00
2023-04-26T00:24:35.567Z,100.00
2023-04-26T00:27:22.567Z,100.00
2023-04-26T00:29:55.913Z,100.00
2023-04-26T00:32:43.584Z,100.00
2023-04-26T00:35:16.630Z,100.00
2023-04-26T00:38:03.558Z,100.00
2023-04-26T00:40:37.682Z,100.00
2023-04-26T00:43:24.529Z,100.00
2023-04-26T00:45:58.702Z,100.00
2023-04-26T00:48:45.541Z,100.00
2023-04-26T00:51:19.649Z,100.00
2023-04-26T00:54:06.568Z,100.00
2023-04-26T00:56:40.821Z,100.00
2023-04-26T00:59:27.566Z,100.00
2023-04-26T01:02:00.813Z,100.00
2023-04-26T01:04:48.577Z,100.00
2023-04-26T01:07:40.670Z,100.00
2023-04-26T01:10:27.575Z,100.00
2023-04-26T01:13:01.681Z,100.00
2023-04-26T01:15:58.568Z,100.00
2023-04-26T01:18:38.564Z,100.00
2023-04-26T01:21:39.575Z,100.00
2023-04-26T01:24:33.569Z,100.00
2023-04-26T01:27:20.564Z,100.00
2023-04-26T01:29:54.072Z,100.00
2023-04-26T01:32:41.591Z,100.00
2023-04-26T01:35:15.671Z,100.00
2023-04-26T01:38:02.562Z,100.00
2023-04-26T01:40:36.303Z,100.00
2023-04-26T01:43:24.576Z,100.00
2023-04-26T01:46:04.685Z,100.00
2023-04-26T01:48:51.770Z,100.00
2023-04-26T01:51:24.749Z,100.00
2023-04-26T01:54:11.550Z,100.00
2023-04-26T01:56:44.744Z,100.00
2023-04-26T01:59:31.587Z,100.00
2023-04-26T02:02:11.682Z,100.00
2023-04-26T02:04:58.604Z,100.00
2023-04-26T02:07:31.660Z,100.00
2023-04-26T02:10:18.582Z,100.00
2023-04-26T02:12:58.578Z,100.00
2023-04-26T02:15:52.612Z,100.00
2023-04-26T02:18:39.595Z,100.00
2023-04-26T02:21:14.668Z,100.00
2023-04-26T02:24:01.604Z,100.00
2023-04-26T02:26:34.701Z,100.00
2023-04-26T02:29:35.947Z,100.00
2023-04-26T02:32:20.624Z,100.00
2023-04-26T02:35:14.611Z,100.00
2023-04-26T02:38:01.592Z,100.00
2023-04-26T02:40:41.601Z,100.00
2023-04-26T02:43:28.600Z,100.00
2023-04-26T02:46:08.616Z,100.00
2023-04-26T02:48:55.614Z,100.00
2023-04-26T02:51:28.698Z,100.00
2023-04-26T02:54:15.586Z,100.00
2023-04-26T02:56:48.696Z,100.00
2023-04-26T02:59:35.609Z,100.00
2023-04-26T03:02:08.781Z,100.00
2023-04-26T03:04:55.585Z,100.00
2023-04-26T03:07:35.599Z,100.00
2023-04-26T03:10:22.600Z,100.00
2023-04-26T03:13:02.599Z,100.00
2023-04-26T03:15:53.596Z,100.00
2023-04-26T03:18:33.732Z,100.00
2023-04-26T03:21:27.599Z,100.00
2023-04-26T03:24:14.611Z,100.00
2023-04-26T03:26:47.711Z,100.00
2023-04-26T03:29:34.620Z,100.00
2023-04-26T03:32:14.673Z,100.00
2023-04-26T03:35:01.625Z,100.00
2023-04-26T03:37:41.613Z,100.00
2023-04-26T03:40:35.586Z,100.00
2023-04-26T03:43:31.945Z,100.00
2023-04-26T03:46:18.651Z,99.42
2023-04-26T03:48:52.092Z,100.00
2023-04-26T03:51:38.628Z,99.38
2023-04-26T03:54:18.626Z,100.00
2023-04-26T03:57:05.615Z,98.80
2023-04-26T03:59:45.638Z,98.43
2023-04-26T04:02:39.733Z,96.91
2023-04-26T04:05:26.659Z,99.12
2023-04-26T04:07:59.722Z,98.44
2023-04-26T04:10:46.615Z,98.41
2023-04-26T04:13:19.744Z,97.41
2023-04-26T04:16:06.650Z,98.07
2023-04-26T04:18:39.744Z,97.46
2023-04-26T04:21:26.617Z,97.39
2023-04-26T04:23:59.778Z,98.09
2023-04-26T04:26:46.657Z,97.11
2023-04-26T04:29:27.678Z,97.38
2023-04-26T04:32:14.643Z,95.75
2023-04-26T04:34:54.617Z,96.46
2023-04-26T04:37:41.647Z,96.37
2023-04-26T04:40:22.656Z,96.04
2023-04-26T04:43:16.635Z,94.91
2023-04-26T04:46:12.485Z,96.37
2023-04-26T04:48:59.646Z,95.58
2023-04-26T04:51:32.743Z,96.49
2023-04-26T04:54:21.640Z,96.78
2023-04-26T04:57:01.636Z,95.93
2023-04-26T04:59:55.646Z,96.08
2023-04-26T05:02:50.763Z,97.47
2023-04-26T05:05:44.672Z,97.01
2023-04-26T05:08:31.632Z,96.55
2023-04-26T05:11:04.867Z,95.05
2023-04-26T05:13:52.962Z,95.81
2023-04-26T05:16:26.762Z,94.94
2023-04-26T05:19:13.653Z,94.71
2023-04-26T05:21:46.802Z,94.96
2023-04-26T05:24:36.684Z,94.29
2023-04-26T05:27:09.747Z,94.17
2023-04-26T05:29:56.653Z,93.87
2023-04-26T05:32:30.171Z,93.36
2023-04-26T05:35:16.668Z,92.11
2023-04-26T05:37:49.769Z,93.44
2023-04-26T05:40:36.682Z,93.16
2023-04-26T05:43:17.655Z,92.96
2023-04-26T05:46:04.706Z,93.93
2023-04-26T05:48:37.766Z,94.06
2023-04-26T05:51:24.670Z,94.68
2023-04-26T05:54:04.673Z,95.37
2023-04-26T05:56:51.676Z,95.39
2023-04-26T05:59:24.781Z,94.65
2023-04-26T06:02:11.832Z,94.39
2023-04-26T06:04:45.026Z,95.21
2023-04-26T06:07:31.670Z,93.74
2023-04-26T06:10:05.244Z,93.70
2023-04-26T06:12:51.672Z,95.29
2023-04-26T06:15:24.785Z,94.47
2023-04-26T06:18:12.796Z,92.73
2023-04-26T06:20:45.813Z,93.38
2023-04-26T06:23:32.690Z,91.42
2023-04-26T06:26:12.686Z,93.11
2023-04-26T06:29:06.653Z,91.72
2023-04-26T06:31:53.669Z,92.18
2023-04-26T06:34:27.202Z,90.99
2023-04-26T06:37:13.727Z,91.37
2023-04-26T06:39:46.771Z,88.72
2023-04-26T06:42:33.686Z,88.77
2023-04-26T06:45:13.695Z,85.66
2023-04-26T06:48:07.754Z,84.58
2023-04-26T06:50:54.684Z,87.73
2023-04-26T06:53:27.778Z,84.31
2023-04-26T06:56:14.827Z,84.91
2023-04-26T06:59:05.822Z,87.28
2023-04-26T07:01:52.740Z,84.79
2023-04-26T07:04:25.938Z,85.42
2023-04-26T07:07:13.625Z,83.45
2023-04-26T07:09:53.721Z,82.18
2023-04-26T07:12:47.707Z,82.50
2023-04-26T07:15:34.723Z,81.28
2023-04-26T07:18:08.111Z,80.22
2023-04-26T07:20:54.701Z,81.87
2023-04-26T07:23:27.802Z,81.81
2023-04-26T07:26:17.704Z,79.43
2023-04-26T07:28:50.805Z,81.25
2023-04-26T07:31:38.717Z,80.83
2023-04-26T07:34:11.858Z,82.73
2023-04-26T07:36:58.734Z,81.64
2023-04-26T07:39:38.709Z,82.46
2023-04-26T07:42:32.724Z,81.43
2023-04-26T07:45:26.755Z,77.81
2023-04-26T07:48:13.788Z,75.98
2023-04-26T07:50:46.817Z,78.10
2023-04-26T07:53:33.690Z,77.82
2023-04-26T07:56:09.865Z,80.46
2023-04-26T07:58:56.733Z,80.60
2023-04-26T08:01:36.722Z,77.40
2023-04-26T08:04:31.862Z,80.14
2023-04-26T08:07:18.743Z,79.27
2023-04-26T08:09:51.975Z,80.42
2023-04-26T08:12:39.744Z,79.70
2023-04-26T08:15:13.937Z,80.97
2023-04-26T08:18:00.732Z,81.41
2023-04-26T08:20:33.917Z,82.11
2023-04-26T08:23:20.740Z,78.14
2023-04-26T08:26:00.755Z,78.93
2023-04-26T08:28:47.733Z,80.03
2023-04-26T08:31:22.987Z,79.23
2023-04-26T08:34:09.793Z,72.43
2023-04-26T08:36:43.845Z,72.50
2023-04-26T08:39:30.761Z,72.80
2023-04-26T08:42:17.741Z,75.14
2023-04-26T08:45:14.738Z,71.01
2023-04-26T08:48:10.813Z,72.29
2023-04-26T08:50:46.722Z,73.87
2023-04-26T08:53:34.754Z,73.96
2023-04-26T08:56:08.840Z,73.65
2023-04-26T08:58:55.745Z,72.63
2023-04-26T09:01:38.729Z,72.71
2023-04-26T09:04:25.877Z,73.87
2023-04-26T09:06:59.848Z,76.96
2023-04-26T09:09:53.753Z,73.02
2023-04-26T09:12:27.198Z,73.58
2023-04-26T09:15:14.767Z,71.51
2023-04-26T09:17:55.853Z,73.72
2023-04-26T09:20:42.762Z,75.73
2023-04-26T09:23:17.274Z,76.21
2023-04-26T09:26:03.790Z,75.43
2023-04-26T09:28:37.447Z,75.64
2023-04-26T09:31:47.029Z,70.92
2023-04-26T09:34:21.863Z,74.10
2023-04-26T09:37:08.766Z,74.96
2023-04-26T09:39:45.458Z,73.51
2023-04-26T09:42:31.764Z,71.32
2023-04-26T09:45:19.784Z,72.14
2023-04-26T09:48:37.781Z,71.32
2023-04-26T09:51:24.845Z,67.39
2023-04-26T09:54:04.776Z,65.65
2023-04-26T09:57:12.756Z,64.98
2023-04-26T10:00:01.831Z,66.58
2023-04-26T10:02:34.896Z,66.72
2023-04-26T10:05:21.771Z,69.50
2023-04-26T10:07:57.081Z,68.44
2023-04-26T10:10:44.812Z,70.46
2023-04-26T10:13:24.778Z,71.08
2023-04-26T10:16:12.808Z,71.46
2023-04-26T10:18:52.916Z,69.96
2023-04-26T10:21:45.784Z,71.71
2023-04-26T10:24:18.880Z,71.04
2023-04-26T10:27:05.778Z,67.16
2023-04-26T10:30:01.008Z,67.10
2023-04-26T10:32:59.848Z,65.40
2023-04-26T10:35:44.763Z,69.27
2023-04-26T10:38:31.845Z,71.15
2023-04-26T10:41:37.078Z,71.13
2023-04-26T10:44:52.797Z,72.83
2023-04-26T10:47:34.045Z,70.19
2023-04-26T10:50:20.800Z,66.94
2023-04-26T10:53:13.925Z,59.95
2023-04-26T10:56:00.788Z,62.11
2023-04-26T10:58:36.018Z,64.87
2023-04-26T11:01:27.857Z,66.57
2023-04-26T11:04:03.988Z,66.13
2023-04-26T11:07:09.798Z,68.01
2023-04-26T11:09:42.922Z,70.18
2023-04-26T11:12:29.801Z,72.14
2023-04-26T11:15:07.286Z,72.40
2023-04-26T11:17:53.861Z,73.55
2023-04-26T11:20:26.902Z,74.00
2023-04-26T11:23:15.820Z,74.60
2023-04-26T11:25:48.968Z,73.23
2023-04-26T11:28:36.818Z,73.78
2023-04-26T11:31:13.847Z,73.15
2023-04-26T11:34:00.804Z,72.56
2023-04-26T11:36:40.830Z,70.14
2023-04-26T11:39:34.812Z,67.04
2023-04-26T11:42:28.817Z,66.45
2023-04-26T11:45:22.820Z,67.04
2023-04-26T11:48:14.871Z,67.44
2023-04-26T11:50:47.904Z,69.09
2023-04-26T11:53:47.816Z,67.73
2023-04-26T11:56:29.827Z,68.96
2023-04-26T11:59:17.820Z,69.97
2023-04-26T12:01:58.009Z,69.47
2023-04-26T12:04:48.211Z,68.82
2023-04-26T12:07:24.907Z,67.88
2023-04-26T12:10:22.829Z,69.93
2023-04-26T12:12:58.046Z,68.85
2023-04-26T12:15:45.879Z,69.96
2023-04-26T12:18:19.021Z,67.76
2023-04-26T12:21:06.843Z,66.86
2023-04-26T12:23:49.838Z,68.77
2023-04-26T12:26:51.854Z,69.19
2023-04-26T12:29:25.047Z,68.21
2023-04-26T12:32:11.865Z,68.11
2023-04-26T12:34:44.945Z,69.89
2023-04-26T12:37:31.843Z,69.88
2023-04-26T12:40:12.857Z,70.62
2023-04-26T12:43:06.841Z,71.69
2023-04-26T12:45:53.878Z,73.12
2023-04-26T12:48:26.984Z,69.65
2023-04-26T12:51:13.845Z,70.45
2023-04-26T12:53:53.855Z,71.03
2023-04-26T12:56:40.873Z,69.67
2023-04-26T12:59:14.047Z,68.54
2023-04-26T13:02:00.928Z,69.26
2023-04-26T13:04:41.852Z,67.71
2023-04-26T13:07:35.866Z,68.00
2023-04-26T13:10:22.871Z,68.71
2023-04-26T13:12:57.864Z,66.75
2023-04-26T13:15:44.901Z,67.38
2023-04-26T13:18:24.903Z,67.23
2023-04-26T13:21:11.888Z,67.62
2023-04-26T13:23:46.299Z,67.86
2023-04-26T13:26:32.866Z,67.71
2023-04-26T13:29:06.031Z,68.19
2023-04-26T13:31:52.957Z,65.51
2023-04-26T13:34:26.039Z,66.82
2023-04-26T13:37:12.855Z,66.94
2023-04-26T13:39:52.884Z,67.94
2023-04-26T13:42:46.846Z,65.83
2023-04-26T13:45:40.876Z,64.28
2023-04-26T13:48:27.873Z,65.34
2023-04-26T13:51:00.945Z,68.41
2023-04-26T13:53:47.892Z,67.50
2023-04-26T13:56:20.963Z,66.14
2023-04-26T13:59:09.873Z,66.72
2023-04-26T14:01:50.778Z,65.65
2023-04-26T14:04:40.009Z,64.05
2023-04-26T14:07:20.899Z,66.06
2023-04-26T14:10:07.986Z,65.05
2023-04-26T14:12:41.426Z,64.36
2023-04-26T14:15:27.876Z,64.37
2023-04-26T14:18:01.088Z,66.05
2023-04-26T14:20:48.130Z,66.27
2023-04-26T14:23:21.147Z,64.63
2023-04-26T14:26:07.893Z,65.04
2023-04-26T14:28:47.901Z,65.51
2023-04-26T14:31:36.919Z,65.99
2023-04-26T14:34:10.064Z,65.19
2023-04-26T14:36:56.868Z,65.09
2023-04-26T14:39:36.888Z,66.41
2023-04-26T14:42:30.885Z,65.73
2023-04-26T14:45:23.656Z,65.22
2023-04-26T14:48:01.811Z,65.74
2023-04-26T14:50:48.910Z,65.73
2023-04-26T14:53:21.998Z,66.43
2023-04-26T14:56:11.757Z,66.27
2023-04-26T14:58:45.093Z,66.07
2023-04-26T15:01:31.980Z,66.63
2023-04-26T15:04:12.112Z,67.16
2023-04-26T15:06:58.920Z,67.88
2023-04-26T15:09:32.267Z,66.08
2023-04-26T15:12:18.921Z,66.27
2023-04-26T15:14:51.997Z,67.08
2023-04-26T15:17:39.950Z,66.08
2023-04-26T15:20:13.005Z,67.74
2023-04-26T15:22:59.965Z,66.92
2023-04-26T15:25:33.035Z,66.67
2023-04-26T15:28:19.898Z,67.17
2023-04-26T15:30:53.049Z,66.42
2023-04-26T15:33:39.899Z,67.25
2023-04-26T15:36:21.013Z,68.07
2023-04-26T15:39:07.951Z,68.41
2023-04-26T15:41:41.093Z,68.65
2023-04-26T15:44:27.926Z,66.80
2023-04-26T15:47:07.899Z,67.42
2023-04-26T15:50:01.948Z,68.71
2023-04-26T15:52:55.901Z,70.23
2023-04-26T15:55:42.944Z,72.01
2023-04-26T15:58:16.103Z,71.98
2023-04-26T16:01:02.982Z,72.96
2023-04-26T16:03:36.225Z,72.24
2023-04-26T16:06:22.925Z,72.14
2023-04-26T16:09:04.703Z,72.04
2023-04-26T16:11:54.924Z,72.68
2023-04-26T16:14:28.186Z,73.37
2023-04-26T16:17:14.931Z,74.21
2023-04-26T16:19:48.561Z,74.22
2023-04-26T16:22:34.938Z,74.53
2023-04-26T16:25:10.024Z,75.51
2023-04-26T16:27:56.914Z,75.36
2023-04-26T16:30:36.938Z,76.18
2023-04-26T16:33:30.934Z,76.13
2023-04-26T16:36:17.930Z,76.59
2023-04-26T16:38:51.024Z,76.32
2023-04-26T16:41:44.950Z,76.93
2023-04-26T16:44:38.952Z,77.70
2023-04-26T16:47:25.922Z,78.51
2023-04-26T16:49:59.082Z,78.10
2023-04-26T16:52:45.947Z,77.16
2023-04-26T16:55:19.053Z,77.51
2023-04-26T16:58:05.935Z,77.05
2023-04-26T17:00:39.080Z,78.64
2023-04-26T17:03:26.279Z,78.41
2023-04-26T17:06:00.201Z,78.79
2023-04-26T17:08:46.956Z,76.97
2023-04-26T17:11:30.930Z,76.31
2023-04-26T17:14:17.953Z,76.78
2023-04-26T17:16:51.205Z,75.60
2023-04-26T17:19:37.940Z,75.74
2023-04-26T17:22:11.360Z,76.98
2023-04-26T17:24:57.951Z,77.74
2023-04-26T17:27:37.971Z,78.40
2023-04-26T17:30:25.989Z,78.57
2023-04-26T17:32:59.110Z,78.50
2023-04-26T17:35:45.973Z,79.41
2023-04-26T17:38:25.956Z,79.53
2023-04-26T17:41:19.988Z,79.98
2023-04-26T17:44:13.947Z,80.74
2023-04-26T17:47:00.955Z,80.04
2023-04-26T17:49:40.966Z,80.84
2023-04-26T17:52:34.987Z,81.65
2023-04-26T17:55:28.980Z,81.59
2023-04-26T17:58:15.935Z,79.12
2023-04-26T18:00:49.077Z,79.30
2023-04-26T18:03:37.031Z,78.98
2023-04-26T18:06:11.067Z,78.50
2023-04-26T18:08:57.979Z,79.63
2023-04-26T18:11:31.070Z,79.96
2023-04-26T18:14:17.967Z,78.83
2023-04-26T18:16:58.018Z,77.41
2023-04-26T18:19:51.985Z,79.10
2023-04-26T18:22:38.985Z,76.79
2023-04-26T18:25:19.985Z,77.72
2023-04-26T18:28:14.987Z,77.81
2023-04-26T18:31:15.030Z,77.15
2023-04-26T18:34:01.979Z,77.28
2023-04-26T18:36:42.981Z,76.84
2023-04-26T18:39:36.975Z,75.60
2023-04-26T18:42:24.048Z,76.28
2023-04-26T18:44:57.095Z,76.18
2023-04-26T18:47:44.066Z,77.24
2023-04-26T18:50:17.082Z,75.74
2023-04-26T18:53:04.153Z,76.29
2023-04-26T18:55:37.080Z,76.20
2023-04-26T18:58:23.995Z,77.34
2023-04-26T19:00:57.375Z,77.83
2023-04-26T19:03:44.155Z,78.33
2023-04-26T19:06:18.144Z,79.50
2023-04-26T19:09:06.000Z,79.22
2023-04-26T19:11:46.008Z,80.58
2023-04-26T19:14:33.017Z,80.66
2023-04-26T19:17:06.565Z,81.20
2023-04-26T19:19:53.001Z,81.26
2023-04-26T19:22:33.023Z,81.82
2023-04-26T19:25:28.992Z,82.41
2023-04-26T19:28:15.995Z,82.48
2023-04-26T19:30:49.134Z,82.45
2023-04-26T19:33:35.999Z,83.25
2023-04-26T19:36:09.091Z,82.55
2023-04-26T19:38:56.006Z,83.02
2023-04-26T19:41:32.115Z,83.39
2023-04-26T19:44:19.018Z,83.71
2023-04-26T19:46:53.157Z,84.29
2023-04-26T19:49:41.005Z,85.25
2023-04-26T19:52:14.127Z,84.95
2023-04-26T19:55:00.993Z,84.67
2023-04-26T19:57:34.622Z,84.79
2023-04-26T20:00:22.029Z,85.25
2023-04-26T20:02:58.970Z,84.77
2023-04-26T20:05:46.026Z,84.74
2023-04-26T20:08:19.233Z,83.75
2023-04-26T20:11:12.030Z,83.39
2023-04-26T20:13:45.182Z,83.33
2023-04-26T20:16:32.116Z,84.19
2023-04-26T20:19:05.499Z,84.75
2023-04-26T20:21:52.022Z,83.77
2023-04-26T20:24:34.016Z,85.25
2023-04-26T20:27:28.028Z,85.61
2023-04-26T20:30:22.038Z,86.40
2023-04-26T20:33:09.114Z,85.72
2023-04-26T20:35:42.230Z,86.19
2023-04-26T20:38:30.030Z,86.01
2023-04-26T20:41:04.563Z,85.62
2023-04-26T20:44:11.619Z,86.39
2023-04-26T20:46:58.610Z,87.24
2023-04-26T20:49:31.726Z,87.28
2023-04-26T20:52:19.682Z,88.30
2023-04-26T20:54:52.806Z,88.20
2023-04-26T20:57:39.596Z,88.87
2023-04-26T21:00:13.739Z,88.82
2023-04-26T21:03:00.746Z,89.32
2023-04-26T21:05:33.965Z,89.22
2023-04-26T21:08:23.951Z,89.31
2023-04-26T21:11:03.630Z,89.45
2023-04-26T21:13:57.662Z,89.64
2023-04-26T21:16:44.606Z,89.89
2023-04-26T21:19:17.728Z,89.90
2023-04-26T21:22:04.627Z,90.19
2023-04-26T21:24:44.633Z,90.60
2023-04-26T21:27:31.649Z,90.51
2023-04-26T21:30:13.946Z,90.94
2023-04-26T21:33:00.667Z,91.59
2023-04-26T21:35:33.729Z,91.21
2023-04-26T21:38:20.650Z,91.33
2023-04-26T21:41:00.643Z,91.60
2023-04-26T21:43:54.668Z,91.83
2023-04-26T21:46:48.714Z,91.82
2023-04-26T21:49:35.641Z,91.97
2023-04-26T21:52:08.728Z,91.88
2023-04-26T21:54:55.628Z,92.48
2023-04-26T21:57:35.702Z,92.51
2023-04-26T22:00:29.659Z,92.67
2023-04-26T22:03:23.817Z,93.07
2023-04-26T22:06:18.694Z,93.34
2023-04-26T22:09:15.708Z,93.42
2023-04-26T22:12:09.645Z,93.33
2023-04-26T22:14:56.638Z,93.66
2023-04-26T22:17:29.964Z,93.42
2023-04-26T22:20:17.681Z,93.81
2023-04-26T22:22:57.657Z,93.79
2023-04-26T22:25:51.683Z,94.05
2023-04-26T22:28:38.641Z,94.07
2023-04-26T22:31:11.757Z,94.31
2023-04-26T22:33:58.651Z,94.58
2023-04-26T22:36:32.600Z,94.44
2023-04-26T22:39:20.658Z,94.60
2023-04-26T22:41:53.781Z,94.57
2023-04-26T22:44:40.655Z,94.92
2023-04-26T22:47:13.808Z,94.60
2023-04-26T22:50:00.690Z,95.09
2023-04-26T22:52:33.793Z,95.14
2023-04-26T22:55:20.674Z,95.46
2023-04-26T22:57:53.787Z,95.51
2023-04-26T23:00:40.641Z,95.54
2023-04-26T23:03:13.916Z,95.41
2023-04-26T23:06:00.643Z,95.69
2023-04-26T23:08:40.686Z,95.74
2023-04-26T23:11:27.716Z,95.95
2023-04-26T23:14:01.897Z,95.92
2023-04-26T23:16:48.753Z,96.35
2023-04-26T23:19:22.144Z,96.26
2023-04-26T23:22:08.682Z,96.54
2023-04-26T23:24:41.766Z,96.55
2023-04-26T23:27:28.682Z,97.16
2023-04-26T23:30:01.812Z,96.71
2023-04-26T23:32:48.694Z,96.83
2023-04-26T23:35:28.687Z,96.88
2023-04-26T23:38:22.698Z,97.10
2023-04-26T23:41:09.682Z,97.27
2023-04-26T23:43:42.775Z,96.91
2023-04-26T23:46:29.770Z,97.24
2023-04-26T23:49:02.805Z,97.37
2023-04-26T23:51:49.700Z,97.19
2023-04-26T23:54:22.850Z,97.20
2023-04-26T23:57:10.681Z,97.47
2023-04-26T23:59:50.671Z,97.32
